Time;durP1;ratioP1;P1;durP2;ratioP2;P2;SDS_P1;SDS_P2;PMS_P1;PMS_P2;Temp;Humidity;BMP_temperature;BMP_pressure;BME280_temperature;BME280_humidity;BME280_pressure;Samples;Min_cycle;Max_cycle;Signal;HPM_P1;HPM_P2
2022/11/22 00:08:52;;;;;;;12.68;4.82;;;;;;;6.66;100.00;98305.66;20804432;28;20164;-76
2022/11/22 00:18:53;;;;;;;12.75;5.32;;;;;;;6.60;100.00;98301.47;20807562;28;20069;-76
2022/11/22 00:28:54;;;;;;;15.32;4.78;;;;;;;6.57;100.00;98292.97;20822204;28;20106;-77
2022/11/22 00:38:56;;;;;;;14.18;4.40;;;;;;;6.63;100.00;98310.94;20914162;23;20551;-77
2022/11/22 00:48:57;;;;;;;9.10;3.83;;;;;;;6.63;100.00;98331.75;20883186;28;20368;-76
2022/11/22 00:58:59;;;;;;;9.80;3.38;;;;;;;6.63;100.00;98339.53;20815975;28;20418;-76
2022/11/22 01:09:00;;;;;;;8.15;3.35;;;;;;;6.73;100.00;98353.94;20830500;28;20099;-77
2022/11/22 01:19:01;;;;;;;7.97;2.65;;;;;;;6.81;100.00;98359.75;20876253;28;20111;-75
2022/11/22 01:29:03;;;;;;;9.02;2.45;;;;;;;6.82;100.00;98358.84;20812925;28;20164;-74
2022/11/22 01:39:04;;;;;;;9.15;3.30;;;;;;;6.86;100.00;98375.19;20812068;28;20483;-76
2022/11/22 01:49:06;;;;;;;9.00;3.05;;;;;;;6.80;100.00;98386.63;20812108;28;20041;-77
2022/11/22 01:59:07;;;;;;;13.82;3.80;;;;;;;6.93;100.00;98374.09;20812386;28;20045;-75
2022/11/22 02:09:09;;;;;;;9.75;3.88;;;;;;;6.90;100.00;98387.22;20805784;28;20112;-77
2022/11/22 02:19:10;;;;;;;13.43;3.80;;;;;;;6.78;100.00;98409.25;20809561;28;20046;-76
2022/11/22 02:29:12;;;;;;;12.70;3.90;;;;;;;6.82;100.00;98404.81;20809222;28;20387;-77
2022/11/22 02:39:14;;;;;;;13.52;3.38;;;;;;;6.82;100.00;98430.81;20809016;28;20073;-75
2022/11/22 02:49:15;;;;;;;8.40;2.83;;;;;;;6.78;100.00;98435.25;20806622;28;20064;-75
2022/11/22 02:59:16;;;;;;;9.77;3.10;;;;;;;6.85;100.00;98447.19;20807070;28;20049;-76
2022/11/22 03:09:18;;;;;;;13.02;2.60;;;;;;;6.95;100.00;98452.94;20806616;28;20737;-76
2022/11/22 03:19:19;;;;;;;11.02;3.10;;;;;;;7.09;100.00;98460.28;20806661;28;20091;-76
2022/11/22 03:29:20;;;;;;;12.00;2.70;;;;;;;7.04;100.00;98472.59;20805548;28;20053;-76
2022/11/22 03:39:22;;;;;;;7.82;2.10;;;;;;;6.76;100.00;98478.69;20805245;28;20058;-75
2022/11/22 03:49:23;;;;;;;13.50;2.75;;;;;;;6.72;100.00;98482.28;20805113;28;20609;-76
2022/11/22 03:59:24;;;;;;;16.08;2.83;;;;;;;6.67;100.00;98499.78;20815459;28;20057;-75
2022/11/22 04:09:26;;;;;;;13.38;2.47;;;;;;;6.61;100.00;98516.41;20823747;28;20086;-74
2022/11/22 04:19:28;;;;;;;15.90;2.60;;;;;;;6.45;100.00;98504.75;20818837;28;20111;-77
2022/11/22 04:29:29;;;;;;;12.60;3.03;;;;;;;6.21;100.00;98501.13;20818859;28;20456;-77
2022/11/22 04:39:31;;;;;;;12.73;2.38;;;;;;;6.13;100.00;98497.88;20817647;28;20041;-77
2022/11/22 04:49:33;;;;;;;21.50;3.10;;;;;;;6.02;100.00;98499.94;20817556;28;20048;-75
2022/11/22 04:59:34;;;;;;;14.77;2.83;;;;;;;5.86;100.00;98505.53;20816863;28;20610;-76
2022/11/22 05:09:36;;;;;;;17.60;2.42;;;;;;;5.72;100.00;98510.22;20813731;28;20069;-76
2022/11/22 05:19:37;;;;;;;10.60;2.35;;;;;;;5.58;100.00;98520.13;20815040;28;20144;-76
2022/11/22 05:29:38;;;;;;;14.57;2.97;;;;;;;5.48;100.00;98531.63;20814814;28;20472;-76
2022/11/22 05:39:40;;;;;;;21.80;3.63;;;;;;;5.51;100.00;98549.72;20812871;28;20196;-76
2022/11/22 05:49:44;;;;;;;20.35;3.67;;;;;;;5.80;100.00;98557.63;20812806;28;20095;-76
2022/11/22 05:59:46;;;;;;;;;;;;;;;5.76;100.00;98558.59;20812368;28;20076;-76
2022/11/22 06:09:47;;;;;;;17.92;2.72;;;;;;;5.69;100.00;98574.38;20810986;28;19983;-76
2022/11/22 06:19:49;;;;;;;18.95;3.10;;;;;;;5.54;100.00;98588.59;20810907;28;20053;-75
2022/11/22 06:29:50;;;;;;;15.85;5.70;;;;;;;5.47;100.00;98600.88;20809599;28;20041;-74
2022/11/22 06:39:51;;;;;;;11.02;2.55;;;;;;;5.36;100.00;98610.63;20809280;28;20110;-74
2022/11/22 06:49:54;;;;;;;13.57;2.60;;;;;;;5.35;100.00;98627.09;20804800;28;20429;-76
2022/11/22 06:59:55;;;;;;;13.55;2.58;;;;;;;5.49;100.00;98624.19;20803430;28;20063;-79
2022/11/22 07:09:57;;;;;;;11.30;2.55;;;;;;;5.61;100.00;98642.09;20803463;28;20080;-76
2022/11/22 07:19:58;;;;;;;20.38;3.45;;;;;;;5.66;100.00;98659.25;20805271;28;20072;-76
2022/11/22 07:30:00;;;;;;;18.83;2.63;;;;;;;5.82;100.00;98670.13;20809430;28;20096;-77
2022/11/22 07:40:01;;;;;;;14.80;2.50;;;;;;;5.81;100.00;98673.59;20820660;28;20085;-76
2022/11/22 07:50:02;;;;;;;18.00;2.97;;;;;;;5.91;100.00;98700.22;20859717;28;20045;-76
2022/11/22 08:00:04;;;;;;;16.90;4.00;;;;;;;5.94;100.00;98707.09;20871303;28;20132;-76
2022/11/22 08:10:05;;;;;;;18.50;3.72;;;;;;;6.05;100.00;98712.91;20814589;28;20430;-76
2022/11/22 08:20:09;;;;;;;14.15;3.67;;;;;;;6.10;100.00;98714.50;20816156;28;20083;-76
2022/11/22 08:30:11;;;;;;;13.10;2.80;;;;;;;6.20;100.00;98712.50;20814342;28;20049;-76
2022/11/22 08:40:12;;;;;;;13.65;3.08;;;;;;;6.37;100.00;98709.47;20821389;28;20053;-78
2022/11/22 08:50:14;;;;;;;13.70;2.60;;;;;;;6.42;100.00;98711.09;20826200;28;20049;-78
2022/11/22 09:00:15;;;;;;;11.40;3.30;;;;;;;6.63;100.00;98701.00;20886936;28;20048;-78
2022/11/22 09:10:17;;;;;;;35.35;9.85;;;;;;;6.72;100.00;98705.94;20903252;28;20791;-78
2022/11/22 09:20:18;;;;;;;21.40;5.93;;;;;;;6.85;100.00;98702.13;20867995;28;20127;-78
2022/11/22 09:30:20;;;;;;;18.10;5.55;;;;;;;7.27;100.00;98701.78;20812800;28;20087;-78
2022/11/22 09:40:22;;;;;;;18.55;4.22;;;;;;;7.48;100.00;98692.47;20826659;28;20045;-78
2022/11/22 09:50:23;;;;;;;19.77;7.35;;;;;;;7.67;100.00;98677.97;20827988;28;20052;-78
2022/11/22 10:00:24;;;;;;;17.23;3.22;;;;;;;7.75;100.00;98669.91;20893499;28;20048;-77
2022/11/22 10:10:26;;;;;;;9.15;2.03;;;;;;;7.77;100.00;98682.91;20892086;28;20057;-77
2022/11/22 10:20:27;;;;;;;7.20;2.00;;;;;;;7.81;100.00;98685.38;20862884;28;20111;-76
2022/11/22 10:30:28;;;;;;;10.10;1.98;;;;;;;7.98;100.00;98693.47;20810306;28;20073;-77
2022/11/22 10:40:30;;;;;;;9.88;2.10;;;;;;;8.13;100.00;98692.13;20808839;28;20099;-76
2022/11/22 10:50:31;;;;;;;10.85;2.00;;;;;;;8.32;100.00;98687.13;20809063;28;20061;-76
2022/11/22 11:00:33;;;;;;;8.88;1.83;;;;;;;8.35;100.00;98694.00;20834266;28;20102;-78
2022/11/22 11:10:35;;;;;;;8.70;2.00;;;;;;;8.48;100.00;98685.75;20895779;28;20493;-78
2022/11/22 11:20:36;;;;;;;10.50;2.10;;;;;;;8.64;100.00;98685.22;20857613;28;20073;-77
2022/11/22 11:30:38;;;;;;;7.63;2.40;;;;;;;8.78;100.00;98664.69;20806769;28;20045;-77
2022/11/22 11:40:39;;;;;;;11.32;2.10;;;;;;;8.78;100.00;98669.06;20805495;28;20104;-77
2022/11/22 11:50:41;;;;;;;13.25;2.58;;;;;;;8.93;100.00;98658.91;20805715;28;20049;-76
2022/11/22 12:00:42;;;;;;;10.68;2.00;;;;;;;8.91;100.00;98650.31;20817000;28;20402;-77
2022/11/22 12:10:44;;;;;;;10.50;1.80;;;;;;;9.00;100.00;98634.25;20888350;28;20044;-77
2022/11/22 12:20:45;;;;;;;6.07;1.75;;;;;;;9.20;100.00;98617.03;20864226;28;20091;-75
2022/11/22 12:30:46;;;;;;;6.47;1.70;;;;;;;9.23;100.00;98609.06;20816946;28;20088;-75
2022/11/22 12:40:48;;;;;;;10.77;1.80;;;;;;;9.27;100.00;98604.56;20824127;28;20517;-75
2022/11/22 12:50:49;;;;;;;9.02;1.73;;;;;;;9.17;100.00;98599.69;20898714;28;20106;-75
2022/11/22 13:00:50;;;;;;;4.20;1.13;;;;;;;9.22;100.00;98609.97;20898049;28;20482;-76
2022/11/22 13:10:52;;;;;;;7.47;1.77;;;;;;;9.17;100.00;98610.13;20896486;28;20049;-75
2022/11/22 13:20:53;;;;;;;5.53;1.50;;;;;;;9.09;100.00;98617.41;20864671;28;20076;-75
2022/11/22 13:30:54;;;;;;;6.60;1.00;;;;;;;9.04;100.00;98608.91;20809683;28;20053;-76
2022/11/22 13:40:56;;;;;;;8.95;1.67;;;;;;;9.07;100.00;98621.00;20814148;28;20045;-75
2022/11/22 13:50:57;;;;;;;4.50;0.88;;;;;;;8.91;100.00;98613.75;20836689;28;20110;-75
2022/11/22 14:00:58;;;;;;;5.43;1.20;;;;;;;8.80;100.00;98626.34;20894627;28;20041;-76
2022/11/22 14:11:00;;;;;;;7.75;2.22;;;;;;;8.60;100.00;98636.66;20820062;28;20681;-76
2022/11/22 14:21:01;;;;;;;6.30;1.92;;;;;;;8.51;100.00;98640.44;20825873;28;20099;-76
2022/11/22 14:31:02;;;;;;;7.13;1.80;;;;;;;8.21;100.00;98642.34;20841444;28;20046;-77
2022/11/22 14:41:04;;;;;;;6.82;1.60;;;;;;;8.09;100.00;98648.81;20853985;28;20491;-77
2022/11/22 14:51:05;;;;;;;5.47;1.75;;;;;;;7.81;100.00;98669.72;20816796;28;20045;-77
2022/11/22 15:01:10;;;;;;;7.63;1.70;;;;;;;7.72;100.00;98680.44;20832522;28;20052;-80
2022/11/22 15:11:12;;;;;;;6.75;1.60;;;;;;;7.64;100.00;98691.09;20865307;28;20072;-77
2022/11/22 15:21:13;;;;;;;7.47;2.28;;;;;;;7.55;100.00;98693.13;20838642;28;20076;-78
2022/11/22 15:31:36;;;;;;;9.13;2.95;;;;;;;7.48;100.00;98712.47;20842741;28;20049;-77
2022/11/22 15:41:58;;;;;;;6.80;3.08;;;;;;;7.43;100.00;98718.66;20880576;28;20049;-78
2022/11/22 15:52:19;;;;;;;6.45;1.52;;;;;;;7.34;100.00;98737.16;20834000;28;20045;-77
2022/11/22 16:02:40;;;;;;;7.03;2.45;;;;;;;7.27;100.00;98750.38;20879475;28;20080;-78
2022/11/22 16:12:41;;;;;;;5.82;1.33;;;;;;;7.19;100.00;98755.81;20943844;28;20411;-78
2022/11/22 16:22:43;;;;;;;7.20;2.17;;;;;;;7.13;100.00;98768.97;20896271;28;20429;-78
2022/11/22 16:32:44;;;;;;;6.70;2.10;;;;;;;7.16;100.00;98766.31;20896195;28;20502;-77
2022/11/22 16:42:45;;;;;;;8.45;2.65;;;;;;;7.13;100.00;98768.97;20820185;28;20045;-78
2022/11/22 16:52:51;;;;;;;6.95;2.33;;;;;;;7.10;100.00;98780.34;20819489;28;20054;-78
2022/11/22 17:02:52;;;;;;;6.50;2.03;;;;;;;7.09;100.00;98788.19;20817294;28;20617;-78
2022/11/22 17:12:54;;;;;;;9.85;2.47;;;;;;;7.13;100.00;98784.59;20828218;28;20108;-78
2022/11/22 17:22:55;;;;;;;15.98;3.95;;;;;;;7.11;100.00;98791.63;20812198;28;20045;-77
2022/11/22 17:32:56;;;;;;;22.70;6.63;;;;;;;7.20;100.00;98793.97;20810723;28;20522;-78
2022/11/22 17:42:59;;;;;;;9.00;2.30;;;;;;;7.07;100.00;98803.00;20811814;28;20096;-78
2022/11/22 17:53:00;;;;;;;8.70;2.70;;;;;;;7.06;100.00;98814.31;20830759;28;20080;-78
2022/11/22 18:03:02;;;;;;;12.23;4.32;;;;;;;6.90;100.00;98839.88;20893883;28;20037;-78
2022/11/22 18:13:08;;;;;;;13.32;4.30;;;;;;;6.79;100.00;98827.13;20861304;28;20559;-77
2022/11/22 18:23:25;;;;;;;11.35;4.40;;;;;;;6.63;100.00;98841.44;20806743;28;20057;-77
2022/11/22 18:33:26;;;;;;;18.20;5.13;;;;;;;6.57;100.00;98850.25;20806122;28;20083;-77
2022/11/22 18:43:34;;;;;;;7.55;2.58;;;;;;;6.57;100.00;98841.59;20878260;23;20395;-84
2022/11/22 18:53:36;;;;;;;11.77;3.15;;;;;;;6.30;100.00;98843.94;20871783;28;20046;-86
2022/11/22 19:03:37;;;;;;;7.18;2.35;;;;;;;6.19;100.00;98848.53;20892737;28;20037;-87
2022/11/22 19:13:39;;;;;;;10.48;3.08;;;;;;;6.21;100.00;98859.75;20834418;28;20048;-86
2022/11/22 19:23:40;;;;;;;15.98;4.18;;;;;;;6.08;100.00;98853.97;20866073;28;20536;-86
2022/11/22 19:33:42;;;;;;;11.98;3.22;;;;;;;6.02;100.00;98863.66;20885375;28;20042;-85
2022/11/22 19:43:43;;;;;;;9.68;2.90;;;;;;;5.90;100.00;98870.78;20854464;28;20115;-84
2022/11/22 19:53:44;;;;;;;15.95;4.10;;;;;;;5.85;100.00;98880.44;20848687;28;20056;-85
2022/11/22 20:03:45;;;;;;;10.32;4.03;;;;;;;5.90;100.00;98875.13;20857757;28;20045;-85
2022/11/22 20:13:47;;;;;;;14.88;2.65;;;;;;;6.12;100.00;98875.53;20862825;28;20123;-85
2022/11/22 20:23:49;;;;;;;9.88;2.60;;;;;;;6.10;100.00;98898.97;20854612;28;20383;-84
2022/11/22 20:33:50;;;;;;;12.20;3.95;;;;;;;5.97;100.00;98912.25;20856925;28;20520;-83
2022/11/22 20:43:51;;;;;;;12.25;3.40;;;;;;;5.88;100.00;98908.06;20836661;28;20053;-83
2022/11/22 20:53:53;;;;;;;10.70;4.07;;;;;;;5.80;100.00;98895.25;20885061;28;20048;-84
2022/11/22 21:03:54;;;;;;;16.52;5.53;;;;;;;5.78;100.00;98902.19;20861387;28;20117;-84
2022/11/22 21:13:56;;;;;;;11.63;3.40;;;;;;;5.79;100.00;98923.84;20856019;28;20045;-85
2022/11/22 21:23:58;;;;;;;10.48;2.60;;;;;;;5.77;100.00;98934.25;20866871;28;20050;-85
2022/11/22 21:33:59;;;;;;;10.23;2.60;;;;;;;5.77;100.00;98944.66;20857646;28;20042;-85
2022/11/22 21:44:01;;;;;;;12.45;2.40;;;;;;;5.97;100.00;98944.28;20842780;28;20484;-86
2022/11/22 21:54:02;;;;;;;13.75;3.10;;;;;;;6.01;100.00;98950.28;20890099;28;20045;-86
2022/11/22 22:04:03;;;;;;;13.45;2.75;;;;;;;5.98;100.00;98952.94;20808705;23;20757;-83
2022/11/22 22:14:05;;;;;;;13.88;2.90;;;;;;;6.16;100.00;98957.75;20782925;28;20430;-82
2022/11/22 22:24:08;;;;;;;9.32;2.15;;;;;;;6.05;100.00;98957.13;20778535;28;20441;-83
2022/11/22 22:34:09;;;;;;;12.70;1.92;;;;;;;5.88;100.00;98976.44;20785225;28;20049;-83
2022/11/22 22:44:11;;;;;;;7.68;2.25;;;;;;;5.75;100.00;98967.22;20778631;28;20096;-83
2022/11/22 22:54:12;;;;;;;7.53;2.08;;;;;;;5.72;100.00;98975.06;20777256;28;20125;-84
2022/11/22 23:04:13;;;;;;;10.38;2.53;;;;;;;5.72;100.00;98980.25;20783906;28;20045;-83
2022/11/22 23:14:15;;;;;;;17.00;2.40;;;;;;;5.71;100.00;98981.13;20774089;28;20049;-83
2022/11/22 23:24:16;;;;;;;9.73;2.20;;;;;;;5.67;100.00;98987.25;20773909;28;20050;-83
2022/11/22 23:34:18;;;;;;;11.13;2.50;;;;;;;5.79;100.00;98987.00;20769006;28;20126;-83
2022/11/22 23:44:19;;;;;;;7.70;2.20;;;;;;;5.88;100.00;98992.03;20769253;28;20473;-83
2022/11/22 23:54:20;;;;;;;13.05;2.30;;;;;;;5.84;100.00;98992.13;20783197;28;20046;-83
